createdAt,value
2022-12-03T00:02:15.343Z,5.98
2022-12-03T00:04:41.921Z,5.98
2022-12-03T00:07:08.304Z,5.97
2022-12-03T00:09:34.995Z,5.96
2022-12-03T00:12:01.472Z,5.97
2022-12-03T00:14:27.955Z,5.97
2022-12-03T00:16:54.301Z,5.96
2022-12-03T00:19:21.029Z,5.93
2022-12-03T00:21:47.361Z,5.91
2022-12-03T00:24:13.829Z,5.88
2022-12-03T00:26:40.222Z,5.87
2022-12-03T00:29:07.070Z,5.86
2022-12-03T00:31:33.495Z,5.85
2022-12-03T00:33:59.883Z,5.86
2022-12-03T00:36:27.551Z,5.87
2022-12-03T00:38:53.942Z,5.88
2022-12-03T00:41:20.375Z,5.86
2022-12-03T00:43:46.720Z,5.83
2022-12-03T00:46:15.790Z,5.81
2022-12-03T00:48:46.135Z,5.80
2022-12-03T00:51:13.069Z,5.80
2022-12-03T00:53:39.552Z,5.78
2022-12-03T00:56:06.437Z,5.77
2022-12-03T00:58:32.987Z,5.75
2022-12-03T01:00:59.363Z,5.75
2022-12-03T01:03:25.779Z,5.75
2022-12-03T01:05:52.137Z,5.77
2022-12-03T01:08:18.618Z,5.74
2022-12-03T01:10:44.953Z,5.72
2022-12-03T01:13:11.476Z,5.69
2022-12-03T01:15:37.865Z,5.68
2022-12-03T01:18:04.375Z,5.67
2022-12-03T01:20:30.730Z,5.64
2022-12-03T01:22:57.124Z,5.63
2022-12-03T01:25:23.582Z,5.61
2022-12-03T01:27:50.409Z,5.60
2022-12-03T01:30:16.750Z,5.60
2022-12-03T01:32:43.166Z,5.57
2022-12-03T01:35:09.705Z,5.56
2022-12-03T01:37:36.036Z,5.55
2022-12-03T01:40:02.672Z,5.55
2022-12-03T01:42:34.872Z,5.53
2022-12-03T01:45:02.810Z,5.52
2022-12-03T01:47:33.403Z,5.51
2022-12-03T01:50:07.020Z,5.48
2022-12-03T01:52:38.385Z,5.46
2022-12-03T01:55:11.498Z,5.47
2022-12-03T01:57:45.883Z,5.45
2022-12-03T02:00:24.809Z,5.43
2022-12-03T02:02:54.943Z,5.41
2022-12-03T02:05:26.077Z,5.38
2022-12-03T02:07:53.164Z,5.36
2022-12-03T02:10:26.017Z,5.37
2022-12-03T02:12:59.531Z,5.39
2022-12-03T02:15:26.159Z,5.40
2022-12-03T02:17:53.232Z,5.39
2022-12-03T02:20:19.932Z,5.38
2022-12-03T02:23:10.670Z,5.38
2022-12-03T02:25:37.895Z,5.36
2022-12-03T02:28:06.081Z,5.36
2022-12-03T02:30:32.991Z,5.36
2022-12-03T02:33:00.099Z,5.34
2022-12-03T02:35:32.676Z,5.33
2022-12-03T02:38:13.772Z,5.29
2022-12-03T02:40:41.902Z,5.28
2022-12-03T02:43:09.575Z,5.26
2022-12-03T02:45:39.490Z,5.25
2022-12-03T02:48:09.315Z,5.26
2022-12-03T02:50:45.986Z,5.25
2022-12-03T02:53:17.285Z,5.24
2022-12-03T02:55:44.261Z,5.22
2022-12-03T02:58:11.379Z,5.22
2022-12-03T03:00:39.013Z,5.21
2022-12-03T03:03:08.058Z,5.20
2022-12-03T03:05:37.767Z,5.20
2022-12-03T03:08:05.313Z,5.19
2022-12-03T03:10:34.228Z,5.19
2022-12-03T03:13:03.703Z,5.17
2022-12-03T03:15:30.286Z,5.17
2022-12-03T03:17:57.574Z,5.15
2022-12-03T03:20:23.955Z,5.15
2022-12-03T03:22:50.287Z,5.17
2022-12-03T03:25:21.000Z,5.16
2022-12-03T03:27:47.667Z,5.15
2022-12-03T03:30:16.930Z,5.12
2022-12-03T03:32:43.343Z,5.13
2022-12-03T03:35:11.470Z,5.12
2022-12-03T03:37:38.323Z,5.12
2022-12-03T03:40:05.274Z,5.10
2022-12-03T03:42:31.728Z,5.08
2022-12-03T03:44:58.339Z,5.08
2022-12-03T03:47:25.640Z,5.07
2022-12-03T03:49:52.949Z,5.06
2022-12-03T03:52:19.619Z,5.08
2022-12-03T03:54:46.956Z,5.08
2022-12-03T03:57:13.401Z,5.07
2022-12-03T03:59:39.778Z,5.08
2022-12-03T04:02:06.761Z,5.08
2022-12-03T04:04:36.601Z,5.08
2022-12-03T04:07:03.215Z,5.09
2022-12-03T04:09:29.570Z,5.08
2022-12-03T04:12:15.425Z,5.05
2022-12-03T04:14:41.777Z,5.04
2022-12-03T04:17:08.133Z,5.03
2022-12-03T04:19:35.199Z,5.02
2022-12-03T04:22:20.516Z,5.00
2022-12-03T04:24:46.927Z,5.00
2022-12-03T04:27:31.821Z,4.99
2022-12-03T04:29:58.259Z,4.99
2022-12-03T04:32:43.120Z,4.99
2022-12-03T04:35:28.541Z,5.00
2022-12-03T04:37:55.133Z,4.99
2022-12-03T04:40:40.249Z,5.00
2022-12-03T04:43:06.901Z,5.00
2022-12-03T04:45:33.303Z,4.97
2022-12-03T04:47:59.779Z,4.94
2022-12-03T04:50:26.232Z,4.93
2022-12-03T04:52:52.607Z,4.91
2022-12-03T04:55:18.976Z,4.90
2022-12-03T04:57:45.366Z,4.90
2022-12-03T05:00:12.364Z,4.91
2022-12-03T05:02:38.963Z,4.93
2022-12-03T05:05:05.884Z,4.94
2022-12-03T05:07:32.316Z,4.92
2022-12-03T05:09:58.685Z,4.91
2022-12-03T05:12:25.079Z,4.89
2022-12-03T05:14:51.816Z,4.89
2022-12-03T05:17:18.480Z,4.88
2022-12-03T05:20:03.307Z,4.87
2022-12-03T05:22:29.789Z,4.86
2022-12-03T05:24:56.563Z,4.86
2022-12-03T05:27:24.190Z,4.86
2022-12-03T05:29:51.163Z,4.85
2022-12-03T05:32:17.628Z,4.83
2022-12-03T05:34:44.086Z,4.83
2022-12-03T05:37:10.859Z,4.83
2022-12-03T05:39:37.579Z,4.84
2022-12-03T05:42:23.018Z,4.84
2022-12-03T05:44:49.737Z,4.83
2022-12-03T05:47:16.163Z,4.84
2022-12-03T05:49:42.546Z,4.81
2022-12-03T05:52:10.310Z,4.80
2022-12-03T05:54:36.644Z,4.79
2022-12-03T05:57:03.317Z,4.76
2022-12-03T05:59:29.757Z,4.72
2022-12-03T06:01:56.237Z,4.70
2022-12-03T06:04:22.620Z,4.69
2022-12-03T06:06:49.717Z,4.68
2022-12-03T06:09:16.166Z,4.66
2022-12-03T06:11:42.616Z,4.64
2022-12-03T06:14:09.087Z,4.63
2022-12-03T06:16:35.668Z,4.63
2022-12-03T06:19:02.048Z,4.63
2022-12-03T06:21:28.514Z,4.61
2022-12-03T06:23:54.902Z,4.60
2022-12-03T06:26:21.499Z,4.60
2022-12-03T06:28:49.266Z,4.59
2022-12-03T06:31:15.672Z,4.60
2022-12-03T06:33:42.153Z,4.60
2022-12-03T06:36:08.703Z,4.59
2022-12-03T06:38:35.041Z,4.56
2022-12-03T06:41:02.210Z,4.55
2022-12-03T06:43:28.578Z,4.56
2022-12-03T06:45:55.062Z,4.56
2022-12-03T06:48:21.404Z,4.54
2022-12-03T06:50:47.888Z,4.53
2022-12-03T06:53:14.263Z,4.55
2022-12-03T06:55:40.609Z,4.55
2022-12-03T06:58:07.114Z,4.54
2022-12-03T07:00:34.345Z,4.54
2022-12-03T07:03:01.073Z,4.54
2022-12-03T07:05:27.752Z,4.54
2022-12-03T07:07:55.257Z,4.55
2022-12-03T07:10:21.893Z,4.57
2022-12-03T07:12:48.324Z,4.58
2022-12-03T07:15:14.721Z,4.60
2022-12-03T07:17:41.065Z,4.60
2022-12-03T07:20:08.041Z,4.59
2022-12-03T07:22:34.504Z,4.58
2022-12-03T07:25:00.991Z,4.54
2022-12-03T07:27:27.348Z,4.57
2022-12-03T07:29:53.797Z,4.57
2022-12-03T07:32:20.143Z,4.59
2022-12-03T07:34:46.562Z,4.62
2022-12-03T07:37:13.403Z,4.64
2022-12-03T07:39:40.485Z,4.64
2022-12-03T07:42:09.175Z,4.64
2022-12-03T07:44:35.669Z,4.64
2022-12-03T07:47:02.315Z,4.63
2022-12-03T07:49:28.740Z,4.63
2022-12-03T07:51:56.747Z,4.59
2022-12-03T07:54:24.181Z,4.61
2022-12-03T07:56:50.613Z,4.63
2022-12-03T07:59:17.565Z,4.63
2022-12-03T08:01:44.370Z,4.65
2022-12-03T08:04:12.768Z,4.67
2022-12-03T08:06:39.227Z,4.68
2022-12-03T08:09:05.586Z,4.72
2022-12-03T08:11:35.850Z,4.75
2022-12-03T08:14:10.563Z,4.78
2022-12-03T08:16:39.532Z,4.83
2022-12-03T08:19:10.742Z,4.85
2022-12-03T08:21:37.657Z,4.88
2022-12-03T08:24:21.354Z,4.96
2022-12-03T08:26:48.982Z,4.98
2022-12-03T08:29:18.022Z,5.04
2022-12-03T08:31:49.844Z,5.12
2022-12-03T08:34:27.308Z,5.17
2022-12-03T08:37:01.359Z,5.19
2022-12-03T08:39:37.731Z,5.23
2022-12-03T08:42:32.024Z,5.30
2022-12-03T08:45:40.517Z,5.38
2022-12-03T08:48:24.200Z,5.43
2022-12-03T08:50:50.588Z,5.43
2022-12-03T08:53:32.984Z,5.43
2022-12-03T08:56:05.499Z,5.43
2022-12-03T08:58:43.692Z,5.43
2022-12-03T09:01:10.057Z,5.45
2022-12-03T09:03:38.440Z,5.47
2022-12-03T09:06:05.603Z,5.55
2022-12-03T09:08:32.028Z,5.62
2022-12-03T09:10:58.409Z,5.67
2022-12-03T09:13:24.854Z,5.73
2022-12-03T09:15:51.223Z,5.79
2022-12-03T09:18:17.663Z,5.83
2022-12-03T09:20:44.149Z,5.88
2022-12-03T09:23:10.701Z,5.99
2022-12-03T09:25:37.131Z,6.08
2022-12-03T09:28:03.906Z,6.13
2022-12-03T09:30:30.309Z,6.15
2022-12-03T09:32:56.752Z,6.17
2022-12-03T09:35:23.475Z,6.16
2022-12-03T09:37:49.815Z,6.11
2022-12-03T09:40:16.257Z,6.08
2022-12-03T09:42:42.779Z,6.03
2022-12-03T09:45:12.146Z,5.95
2022-12-03T09:47:45.143Z,5.86
2022-12-03T09:50:19.138Z,5.82
2022-12-03T09:52:46.835Z,5.81
2022-12-03T09:55:17.038Z,5.81
2022-12-03T09:57:43.825Z,5.85
2022-12-03T10:00:30.289Z,5.86
2022-12-03T10:03:01.244Z,5.93
2022-12-03T10:05:28.637Z,6.05
2022-12-03T10:08:03.142Z,6.14
2022-12-03T10:10:29.669Z,6.14
2022-12-03T10:12:56.208Z,6.09
2022-12-03T10:15:23.874Z,6.02
2022-12-03T10:17:53.176Z,5.95
2022-12-03T10:20:21.757Z,5.89
2022-12-03T10:22:48.775Z,5.83
2022-12-03T10:25:24.338Z,5.80
2022-12-03T10:28:01.108Z,5.80
2022-12-03T10:30:28.999Z,5.83
2022-12-03T10:32:57.952Z,5.84
2022-12-03T10:35:26.164Z,5.85
2022-12-03T10:38:07.279Z,5.87
2022-12-03T10:40:37.569Z,5.86
2022-12-03T10:43:18.900Z,5.85
2022-12-03T10:45:49.569Z,5.85
2022-12-03T10:48:17.362Z,5.90
2022-12-03T10:51:02.353Z,5.94
2022-12-03T10:53:31.494Z,5.97
2022-12-03T10:56:01.733Z,5.97
2022-12-03T10:58:30.977Z,5.96
2022-12-03T11:00:59.182Z,5.95
2022-12-03T11:03:30.695Z,5.90
2022-12-03T11:06:00.091Z,5.87
2022-12-03T11:08:34.959Z,5.83
2022-12-03T11:11:16.981Z,5.80
2022-12-03T11:13:47.563Z,5.75
2022-12-03T11:16:34.594Z,5.72
2022-12-03T11:19:02.153Z,5.67
2022-12-03T11:21:31.718Z,5.60
2022-12-03T11:24:18.872Z,5.58
2022-12-03T11:26:45.167Z,5.55
2022-12-03T11:29:14.661Z,5.57
2022-12-03T11:31:46.602Z,5.58
2022-12-03T11:34:18.825Z,5.61
2022-12-03T11:37:13.320Z,5.66
2022-12-03T11:39:52.387Z,5.70
2022-12-03T11:42:28.337Z,5.71
2022-12-03T11:45:03.832Z,5.70
2022-12-03T11:47:31.424Z,5.68
2022-12-03T11:49:58.032Z,5.64
2022-12-03T11:52:31.405Z,5.66
2022-12-03T11:55:04.164Z,5.68
2022-12-03T11:57:34.716Z,5.71
2022-12-03T12:00:06.959Z,5.75
2022-12-03T12:02:38.686Z,5.77
2022-12-03T12:05:34.796Z,5.74
2022-12-03T12:08:02.769Z,5.73
2022-12-03T12:10:49.027Z,5.70
2022-12-03T12:13:30.793Z,5.68
2022-12-03T12:16:01.691Z,5.69
2022-12-03T12:18:37.120Z,5.66
2022-12-03T12:21:42.033Z,5.63
2022-12-03T12:24:47.471Z,5.64
2022-12-03T12:27:33.310Z,5.67
2022-12-03T12:30:14.126Z,5.68
2022-12-03T12:32:40.930Z,5.71
2022-12-03T12:35:15.738Z,5.69
2022-12-03T12:37:59.770Z,5.67
2022-12-03T12:40:29.916Z,5.64
2022-12-03T12:42:59.493Z,5.61
2022-12-03T12:45:29.097Z,5.59
2022-12-03T12:48:14.756Z,5.57
2022-12-03T12:50:44.220Z,5.56
2022-12-03T12:53:10.502Z,5.53
2022-12-03T12:55:38.389Z,5.52
2022-12-03T12:58:16.943Z,5.52
2022-12-03T13:00:48.841Z,5.52
2022-12-03T13:03:17.559Z,5.53
2022-12-03T13:05:46.903Z,5.54
2022-12-03T13:08:24.427Z,5.55
2022-12-03T13:10:53.692Z,5.56
2022-12-03T13:13:24.721Z,5.59
2022-12-03T13:16:17.813Z,5.63
2022-12-03T13:18:55.151Z,5.64
2022-12-03T13:21:33.465Z,5.66
2022-12-03T13:24:00.839Z,5.65
2022-12-03T13:26:39.611Z,5.64
2022-12-03T13:29:18.243Z,5.62
2022-12-03T13:31:54.420Z,5.61
2022-12-03T13:34:27.722Z,5.61
2022-12-03T13:36:58.063Z,5.58
2022-12-03T13:39:35.057Z,5.57
2022-12-03T13:42:37.007Z,5.57
2022-12-03T13:45:06.724Z,5.58
2022-12-03T13:47:33.062Z,5.57
2022-12-03T13:50:04.258Z,5.56
2022-12-03T13:52:32.573Z,5.52
2022-12-03T13:54:59.002Z,5.52
2022-12-03T13:57:25.340Z,5.50
2022-12-03T13:59:52.271Z,5.49
2022-12-03T14:02:18.974Z,5.47
2022-12-03T14:04:45.528Z,5.48
2022-12-03T14:07:12.086Z,5.50
2022-12-03T14:09:38.492Z,5.49
2022-12-03T14:12:23.811Z,5.46
2022-12-03T14:14:50.151Z,5.45
2022-12-03T14:17:16.608Z,5.43
2022-12-03T14:19:43.520Z,5.44
2022-12-03T14:22:09.993Z,5.44
2022-12-03T14:24:37.317Z,5.40
2022-12-03T14:27:03.852Z,5.39
2022-12-03T14:29:30.336Z,5.40
2022-12-03T14:31:56.806Z,5.37
2022-12-03T14:34:23.342Z,5.37
2022-12-03T14:36:50.397Z,5.34
2022-12-03T14:39:16.855Z,5.32
2022-12-03T14:42:01.697Z,5.34
2022-12-03T14:44:28.143Z,5.34
2022-12-03T14:46:57.302Z,5.32
2022-12-03T14:49:24.396Z,5.30
2022-12-03T14:51:50.788Z,5.30
2022-12-03T14:54:17.125Z,5.31
2022-12-03T14:56:43.576Z,5.32
2022-12-03T14:59:10.001Z,5.33
2022-12-03T15:01:36.353Z,5.32
2022-12-03T15:04:02.890Z,5.30
2022-12-03T15:06:29.243Z,5.28
2022-12-03T15:08:55.604Z,5.27
2022-12-03T15:11:22.122Z,5.26
2022-12-03T15:13:48.662Z,5.26
2022-12-03T15:16:15.414Z,5.26
2022-12-03T15:18:41.885Z,5.24
2022-12-03T15:21:08.249Z,5.26
2022-12-03T15:23:34.665Z,5.27
2022-12-03T15:26:01.021Z,5.27
2022-12-03T15:28:27.625Z,5.28
2022-12-03T15:30:54.045Z,5.27
2022-12-03T15:33:20.493Z,5.28
2022-12-03T15:35:46.879Z,5.29
2022-12-03T15:38:13.464Z,5.28
2022-12-03T15:40:39.959Z,5.28
2022-12-03T15:43:07.779Z,5.26
2022-12-03T15:45:34.406Z,5.27
2022-12-03T15:48:01.425Z,5.28
2022-12-03T15:50:28.389Z,5.27
2022-12-03T15:52:54.844Z,5.24
2022-12-03T15:55:21.781Z,5.21
2022-12-03T15:57:49.179Z,5.18
2022-12-03T16:00:16.990Z,5.16
2022-12-03T16:02:49.104Z,5.10
2022-12-03T16:05:18.873Z,5.06
2022-12-03T16:07:45.372Z,5.01
2022-12-03T16:10:12.059Z,5.01
2022-12-03T16:12:38.432Z,5.03
2022-12-03T16:15:05.621Z,5.05
2022-12-03T16:17:32.166Z,5.05
2022-12-03T16:19:58.492Z,5.02
2022-12-03T16:22:25.153Z,4.99
2022-12-03T16:24:51.589Z,4.98
2022-12-03T16:27:22.749Z,4.98
2022-12-03T16:29:52.094Z,4.96
2022-12-03T16:32:18.703Z,4.94
2022-12-03T16:34:45.085Z,4.91
2022-12-03T16:37:11.636Z,4.88
2022-12-03T16:39:46.769Z,4.89
2022-12-03T16:42:17.260Z,4.90
2022-12-03T16:45:02.699Z,4.89
2022-12-03T16:47:33.585Z,4.89
2022-12-03T16:50:01.788Z,4.91
2022-12-03T16:52:28.218Z,4.91
2022-12-03T16:54:54.587Z,4.90
2022-12-03T16:57:20.966Z,4.91
2022-12-03T16:59:47.295Z,4.91
2022-12-03T17:02:13.997Z,4.93
2022-12-03T17:04:40.592Z,4.91
2022-12-03T17:07:06.940Z,4.92
2022-12-03T17:09:33.337Z,4.95
2022-12-03T17:11:59.680Z,4.97
2022-12-03T17:14:31.451Z,4.98
2022-12-03T17:16:59.571Z,4.97
2022-12-03T17:19:26.041Z,4.98
2022-12-03T17:21:54.082Z,4.99
2022-12-03T17:24:21.354Z,5.01
2022-12-03T17:26:47.931Z,5.01
2022-12-03T17:29:14.302Z,5.02
2022-12-03T17:31:42.467Z,5.02
2022-12-03T17:34:09.703Z,5.00
2022-12-03T17:36:36.109Z,5.01
2022-12-03T17:39:02.608Z,5.00
2022-12-03T17:41:28.965Z,5.00
2022-12-03T17:43:55.333Z,5.00
2022-12-03T17:46:21.945Z,5.01
2022-12-03T17:48:48.383Z,5.00
2022-12-03T17:51:14.825Z,4.98
2022-12-03T17:53:41.263Z,5.00
2022-12-03T17:56:07.699Z,5.01
2022-12-03T17:58:34.631Z,5.03
2022-12-03T18:01:03.288Z,5.05
2022-12-03T18:03:30.314Z,5.06
2022-12-03T18:05:56.818Z,5.06
2022-12-03T18:08:23.392Z,5.05
2022-12-03T18:10:50.082Z,5.01
2022-12-03T18:13:16.524Z,4.99
2022-12-03T18:15:42.963Z,4.98
2022-12-03T18:18:09.392Z,4.98
2022-12-03T18:20:35.838Z,4.97
2022-12-03T18:23:02.473Z,4.95
2022-12-03T18:25:29.613Z,4.92
2022-12-03T18:27:56.552Z,4.94
2022-12-03T18:30:22.925Z,4.94
2022-12-03T18:32:50.654Z,4.94
2022-12-03T18:35:17.125Z,4.94
2022-12-03T18:37:43.718Z,4.96
2022-12-03T18:40:22.322Z,4.96
2022-12-03T18:42:48.778Z,4.97
2022-12-03T18:45:16.340Z,4.95
2022-12-03T18:47:43.230Z,4.92
2022-12-03T18:50:11.554Z,4.89
2022-12-03T18:52:38.035Z,4.90
2022-12-03T18:55:05.568Z,4.88
2022-12-03T18:57:32.039Z,4.85
2022-12-03T18:59:58.649Z,4.84
2022-12-03T19:03:01.363Z,4.86
2022-12-03T19:05:11.783Z,4.81
2022-12-03T19:07:38.217Z,4.82
2022-12-03T19:10:05.304Z,4.79
2022-12-03T19:12:32.754Z,4.78
2022-12-03T19:14:59.283Z,4.80
2022-12-03T19:17:27.126Z,4.79
2022-12-03T19:19:54.276Z,4.78
2022-12-03T19:22:20.967Z,4.77
2022-12-03T19:24:47.312Z,4.73
2022-12-03T19:27:14.107Z,4.70
2022-12-03T19:29:40.601Z,4.70
2022-12-03T19:32:07.253Z,4.73
2022-12-03T19:34:33.713Z,4.73
2022-12-03T19:37:00.095Z,4.70
2022-12-03T19:39:26.664Z,4.68
2022-12-03T19:41:53.029Z,4.66
2022-12-03T19:44:19.545Z,4.61
2022-12-03T19:46:45.950Z,4.60
2022-12-03T19:49:12.406Z,4.62
2022-12-03T19:51:38.787Z,4.64
2022-12-03T19:54:07.550Z,4.63
2022-12-03T19:56:35.134Z,4.61
2022-12-03T19:59:02.225Z,4.57
2022-12-03T20:01:30.850Z,4.55
2022-12-03T20:03:59.178Z,4.53
2022-12-03T20:06:28.926Z,4.54
2022-12-03T20:08:59.314Z,4.55
2022-12-03T20:11:28.727Z,4.54
2022-12-03T20:13:57.002Z,4.54
2022-12-03T20:16:24.656Z,4.53
2022-12-03T20:18:55.414Z,4.54
2022-12-03T20:21:21.788Z,4.52
2022-12-03T20:23:48.382Z,4.50
2022-12-03T20:26:18.380Z,4.50
2022-12-03T20:28:44.733Z,4.47
2022-12-03T20:31:14.376Z,4.47
2022-12-03T20:33:43.119Z,4.44
2022-12-03T20:36:11.154Z,4.46
2022-12-03T20:38:38.298Z,4.43
2022-12-03T20:41:10.301Z,4.45
2022-12-03T20:43:37.073Z,4.40
2022-12-03T20:46:07.926Z,4.37
2022-12-03T20:48:35.107Z,4.35
2022-12-03T20:51:06.190Z,4.32
2022-12-03T20:53:33.132Z,4.30
2022-12-03T20:56:01.018Z,4.29
2022-12-03T20:58:28.196Z,4.32
2022-12-03T21:00:54.738Z,4.33
2022-12-03T21:03:21.393Z,4.32
2022-12-03T21:05:47.961Z,4.31
2022-12-03T21:08:15.287Z,4.30
2022-12-03T21:10:45.271Z,4.28
2022-12-03T21:13:13.823Z,4.23
2022-12-03T21:15:40.957Z,4.15
2022-12-03T21:18:08.879Z,4.14
2022-12-03T21:20:43.165Z,4.17
2022-12-03T21:23:09.716Z,4.21
2022-12-03T21:25:37.125Z,4.23
2022-12-03T21:28:05.223Z,4.21
2022-12-03T21:30:32.381Z,4.19
2022-12-03T21:32:58.962Z,4.17
2022-12-03T21:35:25.617Z,4.17
2022-12-03T21:37:52.152Z,4.17
2022-12-03T21:40:19.226Z,4.19
2022-12-03T21:42:45.666Z,4.19
2022-12-03T21:45:12.091Z,4.19
2022-12-03T21:47:38.546Z,4.18
2022-12-03T21:50:07.225Z,4.15
2022-12-03T21:52:34.818Z,4.13
2022-12-03T21:55:01.235Z,4.13
2022-12-03T21:57:27.662Z,4.12
2022-12-03T21:59:55.369Z,4.13
2022-12-03T22:02:22.322Z,4.14
2022-12-03T22:04:50.117Z,4.15
2022-12-03T22:07:16.549Z,4.14
2022-12-03T22:09:43.112Z,4.11
2022-12-03T22:12:09.452Z,4.08
2022-12-03T22:14:35.837Z,4.04
2022-12-03T22:17:02.313Z,4.00
2022-12-03T22:19:29.360Z,3.97
2022-12-03T22:21:56.202Z,3.95
2022-12-03T22:24:23.673Z,3.94
2022-12-03T22:26:52.127Z,3.95
2022-12-03T22:29:18.590Z,3.97
2022-12-03T22:31:44.975Z,3.94
2022-12-03T22:34:11.409Z,3.96
2022-12-03T22:36:37.817Z,3.98
2022-12-03T22:39:04.787Z,4.01
2022-12-03T22:41:31.180Z,4.04
2022-12-03T22:43:57.602Z,4.05
2022-12-03T22:46:24.383Z,4.05
2022-12-03T22:48:50.945Z,4.05
2022-12-03T22:51:20.390Z,4.05
2022-12-03T22:53:47.787Z,4.04
2022-12-03T22:56:14.576Z,4.01
2022-12-03T22:58:41.329Z,4.02
2022-12-03T23:01:08.138Z,3.99
2022-12-03T23:03:34.771Z,3.97
2022-12-03T23:06:01.175Z,3.96
2022-12-03T23:08:27.678Z,3.93
2022-12-03T23:10:54.052Z,3.92
2022-12-03T23:13:20.764Z,3.92
2022-12-03T23:15:49.799Z,3.93
2022-12-03T23:18:17.333Z,3.93
2022-12-03T23:20:46.398Z,3.93
2022-12-03T23:23:13.000Z,3.93
2022-12-03T23:25:39.563Z,3.93
2022-12-03T23:28:06.487Z,3.93
2022-12-03T23:30:37.397Z,3.94
2022-12-03T23:33:04.870Z,3.95
2022-12-03T23:35:32.178Z,3.94
2022-12-03T23:37:58.793Z,3.94
2022-12-03T23:40:25.154Z,3.95
2022-12-03T23:42:51.636Z,3.97
2022-12-03T23:45:17.978Z,4.00
2022-12-03T23:47:44.330Z,4.00
2022-12-03T23:50:11.076Z,4.02
2022-12-03T23:52:37.847Z,4.02
2022-12-03T23:55:04.516Z,4.02
2022-12-03T23:57:30.967Z,4.04
2022-12-03T23:59:57.573Z,4.06
